createdAt,value
2023-03-11T05:00:38.675Z,99.99
2023-03-11T05:01:39.700Z,99.99
2023-03-11T05:02:39.640Z,99.99
2023-03-11T05:03:39.599Z,99.99
2023-03-11T05:04:39.681Z,99.99
2023-03-11T05:05:39.638Z,99.99
2023-03-11T05:06:39.561Z,99.99
2023-03-11T05:07:39.574Z,99.99
2023-03-11T05:08:39.532Z,99.99
2023-03-11T05:09:39.565Z,99.99
2023-03-11T05:10:39.516Z,99.99
2023-03-11T05:11:39.512Z,99.99
2023-03-11T05:12:39.488Z,99.99
2023-03-11T05:13:39.510Z,99.99
2023-03-11T05:14:39.500Z,99.99
2023-03-11T05:15:39.544Z,99.99
2023-03-11T05:16:39.454Z,99.99
2023-03-11T05:17:39.454Z,99.99
2023-03-11T05:18:39.436Z,99.99
2023-03-11T05:19:39.439Z,99.99
2023-03-11T05:20:39.447Z,99.99
2023-03-11T05:21:39.432Z,99.99
2023-03-11T05:22:39.400Z,99.99
2023-03-11T05:23:39.452Z,99.99
2023-03-11T05:24:39.373Z,99.99
2023-03-11T05:25:39.369Z,99.99
2023-03-11T05:26:39.370Z,99.99
2023-03-11T05:27:39.367Z,99.99
2023-03-11T05:28:39.329Z,99.99
2023-03-11T05:29:39.332Z,99.99
2023-03-11T05:30:39.307Z,99.99
2023-03-11T05:31:39.344Z,99.99
2023-03-11T05:32:39.351Z,99.99
2023-03-11T05:33:39.285Z,99.99
2023-03-11T05:34:39.268Z,99.99
2023-03-11T05:35:39.349Z,99.99
2023-03-11T05:36:39.250Z,99.99
2023-03-11T05:37:39.339Z,99.99
2023-03-11T05:38:39.227Z,99.99
2023-03-11T05:39:39.226Z,99.99
2023-03-11T05:40:39.214Z,99.99
2023-03-11T05:41:39.225Z,99.99
2023-03-11T05:42:39.263Z,99.99
2023-03-11T05:43:39.189Z,99.99
2023-03-11T05:44:39.167Z,99.99
2023-03-11T05:45:39.167Z,99.99
2023-03-11T05:46:39.227Z,99.99
2023-03-11T05:47:39.173Z,99.99
2023-03-11T05:48:39.120Z,99.99
2023-03-11T05:49:39.122Z,99.99
2023-03-11T05:50:39.109Z,99.99
2023-03-11T05:51:39.120Z,99.99
2023-03-11T05:52:39.088Z,99.99
2023-03-11T05:53:39.087Z,99.99
2023-03-11T05:54:39.055Z,99.99
2023-03-11T05:55:39.064Z,99.99
2023-03-11T05:56:39.055Z,99.99
2023-03-11T05:57:39.087Z,99.99
2023-03-11T05:58:39.028Z,99.99
2023-03-11T05:59:39.013Z,99.99
2023-03-11T06:00:38.997Z,99.99
2023-03-11T06:01:38.980Z,99.99
2023-03-11T06:02:39.011Z,99.99
2023-03-11T06:03:39.003Z,99.99
2023-03-11T06:04:39.059Z,99.99
2023-03-11T06:05:38.991Z,99.99
2023-03-11T06:06:38.930Z,99.99
2023-03-11T06:07:39.042Z,99.99
2023-03-11T06:08:38.920Z,99.99
2023-03-11T06:09:38.929Z,99.99
2023-03-11T06:10:38.901Z,99.99
2023-03-11T06:11:38.892Z,99.99
2023-03-11T06:12:38.894Z,99.99
2023-03-11T06:13:38.870Z,99.99
2023-03-11T06:14:38.857Z,99.99
2023-03-11T06:15:38.873Z,99.99
2023-03-11T06:16:38.975Z,99.99
2023-03-11T06:17:38.875Z,99.99
2023-03-11T06:18:38.825Z,99.99
2023-03-11T06:19:38.803Z,99.99
2023-03-11T06:20:39.723Z,99.99
2023-03-11T06:21:38.800Z,99.99
2023-03-11T06:22:40.268Z,99.99
2023-03-11T06:23:38.767Z,99.99
2023-03-11T06:24:38.777Z,99.99
2023-03-11T06:25:38.746Z,99.99
2023-03-11T06:26:38.736Z,99.99
2023-03-11T06:27:38.744Z,99.99
2023-03-11T06:28:38.704Z,99.99
2023-03-11T06:29:38.742Z,99.99
2023-03-11T06:30:38.707Z,99.99
2023-03-11T06:31:38.736Z,99.99
2023-03-11T06:32:38.800Z,99.99
2023-03-11T06:33:38.700Z,99.99
2023-03-11T06:34:38.683Z,99.99
2023-03-11T06:35:38.795Z,99.99
2023-03-11T06:36:38.622Z,99.99
2023-03-11T06:37:38.661Z,99.99
2023-03-11T06:38:38.606Z,99.99
2023-03-11T06:39:38.653Z,99.99
2023-03-11T06:40:38.678Z,99.99
2023-03-11T06:41:38.588Z,99.99
2023-03-11T06:42:38.618Z,99.99
2023-03-11T06:43:38.578Z,99.99
2023-03-11T06:44:38.544Z,99.99
2023-03-11T06:45:38.579Z,99.99
2023-03-11T06:46:38.518Z,99.99
2023-03-11T06:47:38.520Z,99.99
2023-03-11T06:48:38.524Z,99.99
2023-03-11T06:49:38.526Z,99.99
2023-03-11T06:50:38.570Z,99.99
2023-03-11T06:51:38.489Z,99.98
2023-03-11T06:52:38.446Z,99.99
2023-03-11T06:53:38.465Z,99.99
2023-03-11T06:54:38.485Z,99.99
2023-03-11T06:55:38.439Z,99.88
2023-03-11T06:56:38.436Z,99.04
2023-03-11T06:57:38.399Z,98.93
2023-03-11T06:58:38.403Z,99.56
2023-03-11T06:59:38.388Z,99.46
2023-03-11T07:00:38.406Z,99.20
2023-03-11T07:01:38.402Z,98.58
2023-03-11T07:02:38.376Z,97.85
2023-03-11T07:03:38.378Z,98.16
2023-03-11T07:04:38.335Z,98.16
2023-03-11T07:05:38.343Z,97.64
2023-03-11T07:06:38.314Z,97.64
2023-03-11T07:07:38.334Z,98.16
2023-03-11T07:08:38.294Z,97.74
2023-03-11T07:09:38.284Z,97.11
2023-03-11T07:10:38.281Z,97.22
2023-03-11T07:11:38.277Z,97.17
2023-03-11T07:12:38.245Z,96.97
2023-03-11T07:13:38.284Z,95.50
2023-03-11T07:14:38.240Z,94.19
2023-03-11T07:15:38.220Z,93.35
2023-03-11T07:16:38.262Z,93.88
2023-03-11T07:17:38.225Z,94.40
2023-03-11T07:18:38.218Z,94.92
2023-03-11T07:19:38.249Z,95.40
2023-03-11T07:20:38.161Z,95.44
2023-03-11T07:21:38.194Z,94.82
2023-03-11T07:22:38.135Z,95.03
2023-03-11T07:23:38.154Z,95.29
2023-03-11T07:24:38.151Z,95.19
2023-03-11T07:25:38.148Z,94.35
2023-03-11T07:26:38.122Z,94.35
2023-03-11T07:27:38.124Z,94.15
2023-03-11T07:28:38.103Z,93.77
2023-03-11T07:29:38.344Z,94.25
2023-03-11T07:30:38.146Z,94.57
2023-03-11T07:31:38.178Z,94.67
2023-03-11T07:32:38.091Z,94.57
2023-03-11T07:33:38.054Z,93.57
2023-03-11T07:34:38.045Z,94.15
2023-03-11T07:35:38.060Z,94.15
2023-03-11T07:36:38.038Z,93.31
2023-03-11T07:37:37.995Z,92.58
2023-03-11T07:38:37.980Z,93.21
2023-03-11T07:39:38.793Z,92.69
2023-03-11T07:40:38.001Z,92.58
2023-03-11T07:41:37.962Z,92.16
2023-03-11T07:42:37.934Z,91.96
2023-03-11T07:43:37.958Z,92.58
2023-03-11T07:44:37.930Z,93.06
2023-03-11T07:45:38.083Z,93.69
2023-03-11T07:46:37.908Z,93.52
2023-03-11T07:47:37.894Z,93.00
2023-03-11T07:48:37.877Z,93.21
2023-03-11T07:49:37.966Z,93.41
2023-03-11T07:50:37.852Z,92.69
2023-03-11T07:51:37.853Z,93.21
2023-03-11T07:52:37.836Z,93.52
2023-03-11T07:53:37.825Z,93.31
2023-03-11T07:54:37.822Z,93.69
2023-03-11T07:55:37.793Z,93.06
2023-03-11T07:56:37.788Z,92.85
2023-03-11T07:57:37.789Z,92.90
2023-03-11T07:58:37.820Z,93.06
2023-03-11T07:59:38.061Z,92.79
2023-03-11T08:00:37.744Z,90.81
2023-03-11T08:01:37.825Z,91.43
2023-03-11T08:02:37.841Z,91.64
2023-03-11T08:03:37.759Z,92.06
2023-03-11T08:04:38.249Z,91.85
2023-03-11T08:05:37.741Z,90.97
2023-03-11T08:06:37.745Z,91.60
2023-03-11T08:07:37.730Z,90.66
2023-03-11T08:08:37.656Z,90.52
2023-03-11T08:09:37.827Z,89.01
2023-03-11T08:10:37.700Z,90.47
2023-03-11T08:11:37.662Z,90.00
2023-03-11T08:12:37.761Z,90.52
2023-03-11T08:13:37.766Z,90.56
2023-03-11T08:14:37.627Z,91.14
2023-03-11T08:15:37.688Z,91.00
2023-03-11T08:16:37.624Z,91.00
2023-03-11T08:17:37.639Z,90.58
2023-03-11T08:18:37.573Z,89.54
2023-03-11T08:19:37.654Z,89.22
2023-03-11T08:20:37.575Z,89.78
2023-03-11T08:21:37.575Z,90.00
2023-03-11T08:22:43.408Z,89.01
2023-03-11T08:23:37.506Z,88.60
2023-03-11T08:24:37.592Z,88.45
2023-03-11T08:25:37.510Z,88.10
2023-03-11T08:26:37.536Z,86.91
2023-03-11T08:27:37.468Z,86.65
2023-03-11T08:28:37.527Z,87.37
2023-03-11T08:29:37.490Z,88.24
2023-03-11T08:30:37.505Z,88.76
2023-03-11T08:31:37.529Z,86.79
2023-03-11T08:32:37.573Z,87.85
2023-03-11T08:33:37.430Z,84.13
2023-03-11T08:34:37.459Z,85.24
2023-03-11T08:35:37.620Z,82.35
2023-03-11T08:36:37.415Z,83.26
2023-03-11T08:37:37.471Z,85.14
2023-03-11T08:38:37.417Z,86.65
2023-03-11T08:39:37.411Z,87.10
2023-03-11T08:40:37.374Z,87.83
2023-03-11T08:41:37.324Z,88.76
2023-03-11T08:42:37.301Z,88.66
2023-03-11T08:43:37.304Z,87.73
2023-03-11T08:44:37.273Z,88.49
2023-03-11T08:45:37.346Z,89.43
2023-03-11T08:46:37.307Z,89.78
2023-03-11T08:47:37.268Z,90.52
2023-03-11T08:48:37.234Z,89.78
2023-03-11T08:49:37.226Z,90.00
2023-03-11T08:50:52.802Z,90.31
2023-03-11T08:51:37.265Z,89.85
2023-03-11T08:52:37.267Z,89.85
2023-03-11T08:53:37.244Z,89.75
2023-03-11T08:54:37.181Z,88.43
2023-03-11T08:55:37.159Z,88.95
2023-03-11T08:56:37.168Z,89.12
2023-03-11T08:57:37.156Z,89.22
2023-03-11T08:58:37.172Z,88.60
2023-03-11T08:59:37.115Z,88.91
2023-03-11T09:00:37.145Z,87.97
2023-03-11T09:01:37.133Z,88.18
2023-03-11T09:02:37.158Z,89.12
2023-03-11T09:03:37.074Z,89.22
2023-03-11T09:04:37.100Z,89.75
2023-03-11T09:05:37.096Z,89.32
2023-03-11T09:06:37.129Z,89.01
2023-03-11T09:07:37.032Z,89.08
2023-03-11T09:08:37.051Z,88.24
2023-03-11T09:09:37.090Z,88.76
2023-03-11T09:10:37.020Z,88.73
2023-03-11T09:11:37.020Z,87.89
2023-03-11T09:12:37.018Z,87.54
2023-03-11T09:13:37.187Z,86.85
2023-03-11T09:14:39.455Z,86.85
2023-03-11T09:15:36.969Z,86.79
2023-03-11T09:16:36.977Z,86.27
2023-03-11T09:17:36.924Z,87.10
2023-03-11T09:18:36.997Z,87.24
2023-03-11T09:19:36.966Z,87.52
2023-03-11T09:20:36.910Z,87.93
2023-03-11T09:21:36.892Z,87.79
2023-03-11T09:22:36.886Z,88.14
2023-03-11T09:23:36.866Z,88.66
2023-03-11T09:24:36.868Z,87.93
2023-03-11T09:25:36.853Z,88.35
2023-03-11T09:26:36.878Z,88.66
2023-03-11T09:27:36.836Z,88.98
2023-03-11T09:28:36.843Z,88.87
2023-03-11T09:29:36.803Z,88.76
2023-03-11T09:30:36.793Z,89.25
2023-03-11T09:31:36.893Z,88.24
2023-03-11T09:32:36.820Z,88.98
2023-03-11T09:33:36.834Z,88.76
2023-03-11T09:34:36.757Z,89.18
2023-03-11T09:35:36.805Z,89.50
2023-03-11T09:36:36.732Z,89.70
2023-03-11T09:37:36.737Z,89.39
2023-03-11T09:38:36.722Z,89.43
2023-03-11T09:39:36.701Z,89.32
2023-03-11T09:40:36.711Z,88.91
2023-03-11T09:41:44.933Z,88.91
2023-03-11T09:42:36.721Z,89.50
2023-03-11T09:43:36.676Z,90.01
2023-03-11T09:44:36.666Z,90.16
2023-03-11T09:45:36.710Z,90.06
2023-03-11T09:46:36.769Z,90.12
2023-03-11T09:47:36.687Z,89.85
2023-03-11T09:48:36.704Z,89.85
2023-03-11T09:49:36.610Z,90.47
2023-03-11T09:50:36.610Z,89.70
2023-03-11T09:51:36.583Z,89.70
2023-03-11T09:52:36.589Z,89.64
2023-03-11T09:53:36.578Z,90.85
2023-03-11T09:54:36.537Z,90.95
2023-03-11T09:55:36.621Z,90.79
2023-03-11T09:56:36.563Z,90.89
2023-03-11T09:57:36.594Z,91.72
2023-03-11T09:58:36.548Z,91.41
2023-03-11T09:59:36.513Z,90.89
2023-03-11T10:00:36.564Z,91.10
2023-03-11T10:01:36.502Z,91.93
2023-03-11T10:02:36.655Z,92.03
2023-03-11T10:03:39.659Z,91.77
2023-03-11T10:04:36.809Z,91.25
2023-03-11T10:05:37.710Z,91.77
2023-03-11T10:06:36.461Z,91.66
2023-03-11T10:07:36.636Z,91.87
2023-03-11T10:08:36.399Z,92.18
2023-03-11T10:09:38.916Z,92.08
2023-03-11T10:10:36.368Z,91.87
2023-03-11T10:11:36.355Z,92.65
2023-03-11T10:12:36.345Z,93.23
2023-03-11T10:13:36.368Z,93.44
2023-03-11T10:14:36.337Z,93.54
2023-03-11T10:15:38.366Z,92.81
2023-03-11T10:16:36.366Z,92.50
2023-03-11T10:17:36.315Z,92.18
2023-03-11T10:18:36.312Z,91.87
2023-03-11T10:19:36.316Z,92.08
2023-03-11T10:20:36.279Z,92.50
2023-03-11T10:21:36.249Z,92.91
2023-03-11T10:22:36.239Z,93.12
2023-03-11T10:23:36.244Z,92.18
2023-03-11T10:24:36.227Z,91.87
2023-03-11T10:25:36.225Z,92.14
2023-03-11T10:26:36.203Z,92.14
2023-03-11T10:27:36.231Z,92.35
2023-03-11T10:28:36.279Z,92.41
2023-03-11T10:29:36.196Z,92.00
2023-03-11T10:30:36.176Z,91.78
2023-03-11T10:31:36.195Z,91.64
2023-03-11T10:32:36.202Z,90.64
2023-03-11T10:33:36.160Z,90.85
2023-03-11T10:34:36.153Z,90.75
2023-03-11T10:35:36.150Z,90.75
2023-03-11T10:36:36.123Z,91.12
2023-03-11T10:37:48.865Z,91.02
2023-03-11T10:38:36.154Z,90.91
2023-03-11T10:39:36.067Z,90.91
2023-03-11T10:40:36.066Z,91.12
2023-03-11T10:41:36.059Z,91.39
2023-03-11T10:42:36.023Z,90.35
2023-03-11T10:43:36.058Z,90.56
2023-03-11T10:44:36.034Z,89.79
2023-03-11T10:45:36.058Z,89.37
2023-03-11T10:46:35.999Z,89.58
2023-03-11T10:47:35.980Z,88.96
2023-03-11T10:48:35.981Z,89.37
2023-03-11T10:49:35.955Z,88.96
2023-03-11T10:50:36.619Z,88.33
2023-03-11T10:51:35.931Z,88.33
2023-03-11T10:52:35.927Z,88.58
2023-03-11T10:53:35.923Z,88.31
2023-03-11T10:54:35.912Z,89.45
2023-03-11T10:55:35.901Z,90.45
2023-03-11T10:56:35.904Z,89.73
2023-03-11T10:57:35.873Z,87.40
2023-03-11T10:58:35.876Z,87.75
2023-03-11T10:59:35.847Z,88.89
2023-03-11T11:00:35.853Z,88.52
2023-03-11T11:01:36.007Z,88.93
2023-03-11T11:02:35.830Z,88.62
2023-03-11T11:03:35.856Z,88.45
2023-03-11T11:04:35.842Z,89.14
2023-03-11T11:05:35.871Z,89.04
2023-03-11T11:06:35.782Z,88.83
2023-03-11T11:07:35.789Z,89.08
2023-03-11T11:08:35.764Z,88.98
2023-03-11T11:09:35.765Z,90.44
2023-03-11T11:10:35.800Z,89.60
2023-03-11T11:11:35.756Z,90.33
2023-03-11T11:12:35.730Z,89.98
2023-03-11T11:13:35.717Z,89.56
2023-03-11T11:14:35.708Z,88.37
2023-03-11T11:15:35.693Z,88.58
2023-03-11T11:16:35.739Z,88.31
2023-03-11T11:17:35.687Z,88.68
2023-03-11T11:18:35.651Z,89.37
2023-03-11T11:19:35.658Z,86.25
2023-03-11T11:20:35.659Z,85.94
2023-03-11T11:21:35.618Z,86.00
2023-03-11T11:22:35.611Z,86.11
2023-03-11T11:23:35.605Z,86.52
2023-03-11T11:24:35.606Z,86.21
2023-03-11T11:25:35.725Z,85.69
2023-03-11T11:26:35.577Z,83.92
2023-03-11T11:27:35.549Z,84.59
2023-03-11T11:28:35.548Z,85.80
2023-03-11T11:29:35.593Z,83.86
2023-03-11T11:30:35.605Z,84.17
2023-03-11T11:31:35.569Z,83.80
2023-03-11T11:32:35.531Z,84.83
2023-03-11T11:33:35.502Z,84.94
2023-03-11T11:34:35.524Z,85.35
2023-03-11T11:35:35.506Z,85.14
2023-03-11T11:36:35.459Z,84.83
2023-03-11T11:37:35.470Z,85.88
2023-03-11T11:38:35.438Z,85.35
2023-03-11T11:39:35.427Z,85.88
2023-03-11T11:40:35.475Z,85.77
2023-03-11T11:41:35.407Z,85.91
2023-03-11T11:42:35.407Z,86.33
2023-03-11T11:43:35.383Z,86.22
2023-03-11T11:44:35.397Z,86.75
2023-03-11T11:45:35.398Z,86.60
2023-03-11T11:46:35.364Z,85.88
2023-03-11T11:47:35.342Z,85.77
2023-03-11T11:48:35.341Z,85.73
2023-03-11T11:49:35.355Z,84.38
2023-03-11T11:50:35.356Z,85.06
2023-03-11T11:51:35.423Z,82.01
2023-03-11T11:52:35.362Z,78.44
2023-03-11T11:53:35.308Z,79.93
2023-03-11T11:54:35.286Z,81.94
2023-03-11T11:55:35.274Z,81.35
2023-03-11T11:56:35.324Z,81.29
2023-03-11T11:57:35.279Z,82.57
2023-03-11T11:58:35.303Z,80.97
2023-03-11T11:59:35.232Z,78.47
2023-03-11T12:00:35.261Z,78.51
2023-03-11T12:01:35.203Z,77.40
2023-03-11T12:02:35.213Z,76.61
2023-03-11T12:03:35.198Z,78.30
2023-03-11T12:04:35.166Z,79.69
2023-03-11T12:05:35.239Z,77.30
2023-03-11T12:06:35.199Z,77.68
2023-03-11T12:07:35.184Z,76.37
2023-03-11T12:08:35.705Z,78.30
2023-03-11T12:09:35.095Z,76.50
2023-03-11T12:10:35.124Z,74.19
2023-03-11T12:11:35.072Z,74.40
2023-03-11T12:12:35.072Z,73.25
2023-03-11T12:13:35.060Z,72.94
2023-03-11T12:14:35.063Z,71.59
2023-03-11T12:15:35.119Z,73.98
2023-03-11T12:16:35.046Z,76.23
2023-03-11T12:17:35.049Z,73.36
2023-03-11T12:18:35.048Z,72.08
2023-03-11T12:19:35.494Z,74.91
2023-03-11T12:20:34.987Z,72.74
2023-03-11T12:21:34.990Z,69.95
2023-03-11T12:22:34.989Z,70.07
2023-03-11T12:23:34.973Z,72.94
2023-03-11T12:24:34.973Z,75.67
2023-03-11T12:25:35.243Z,77.06
2023-03-11T12:26:34.940Z,77.78
2023-03-11T12:27:34.915Z,76.61
2023-03-11T12:28:34.908Z,75.29
2023-03-11T12:29:34.878Z,75.74
2023-03-11T12:30:34.884Z,76.82
2023-03-11T12:31:35.057Z,77.37
2023-03-11T12:32:34.974Z,78.10
2023-03-11T12:33:34.892Z,78.93
2023-03-11T12:34:34.849Z,79.59
2023-03-11T12:35:34.874Z,80.32
2023-03-11T12:36:34.814Z,80.22
2023-03-11T12:37:34.805Z,81.15
2023-03-11T12:38:34.816Z,80.11
2023-03-11T12:39:34.820Z,77.72
2023-03-11T12:40:34.789Z,78.44
2023-03-11T12:41:34.760Z,79.21
2023-03-11T12:42:34.823Z,77.51
2023-03-11T12:43:34.769Z,75.43
2023-03-11T12:44:34.733Z,75.64
2023-03-11T12:45:34.748Z,76.61
2023-03-11T12:46:34.718Z,77.65
2023-03-11T12:47:35.788Z,76.50
2023-03-11T12:48:34.762Z,72.50
2023-03-11T12:49:34.683Z,70.11
2023-03-11T12:50:34.656Z,70.32
2023-03-11T12:51:34.701Z,70.01
2023-03-11T12:52:34.679Z,67.91
2023-03-11T12:53:34.633Z,69.90
2023-03-11T12:54:34.645Z,72.69
2023-03-11T12:55:34.689Z,75.12
2023-03-11T12:56:34.601Z,75.12
2023-03-11T12:57:34.581Z,75.09
2023-03-11T12:58:34.586Z,74.18
2023-03-11T12:59:34.564Z,74.80
2023-03-11T13:00:34.567Z,74.01
2023-03-11T13:01:34.575Z,71.87
2023-03-11T13:02:34.577Z,73.01
2023-03-11T13:03:34.515Z,70.49
2023-03-11T13:04:34.528Z,67.88
2023-03-11T13:05:34.545Z,65.95
2023-03-11T13:06:34.545Z,63.79
2023-03-11T13:07:34.474Z,64.62
2023-03-11T13:08:34.510Z,62.53
2023-03-11T13:09:34.452Z,61.44
2023-03-11T13:10:34.444Z,59.66
2023-03-11T13:11:34.491Z,59.04
2023-03-11T13:12:34.431Z,63.26
2023-03-11T13:13:34.459Z,65.19
2023-03-11T13:14:34.424Z,67.97
2023-03-11T13:15:34.390Z,70.07
2023-03-11T13:16:34.414Z,70.73
2023-03-11T13:17:34.381Z,71.80
2023-03-11T13:18:34.370Z,70.17
2023-03-11T13:19:34.391Z,71.07
2023-03-11T13:20:34.341Z,73.04
2023-03-11T13:21:34.398Z,73.46
2023-03-11T13:22:34.312Z,73.25
2023-03-11T13:23:34.398Z,73.84
2023-03-11T13:24:34.299Z,73.22
2023-03-11T13:25:34.286Z,73.28
2023-03-11T13:26:34.278Z,71.49
2023-03-11T13:27:34.263Z,71.18
2023-03-11T13:28:34.253Z,70.52
2023-03-11T13:29:34.310Z,70.42
2023-03-11T13:30:34.230Z,68.49
2023-03-11T13:31:34.266Z,67.94
2023-03-11T13:32:34.286Z,67.24
2023-03-11T13:33:34.203Z,67.69
2023-03-11T13:34:34.263Z,67.94
2023-03-11T13:35:34.233Z,68.04
2023-03-11T13:36:34.157Z,66.93
2023-03-11T13:37:34.162Z,66.32
2023-03-11T13:38:34.152Z,63.34
2023-03-11T13:39:34.220Z,65.01
2023-03-11T13:40:34.145Z,65.93
2023-03-11T13:41:34.114Z,68.07
2023-03-11T13:42:34.101Z,69.55
2023-03-11T13:43:34.088Z,70.20
2023-03-11T13:44:34.132Z,70.86
2023-03-11T13:45:34.164Z,71.69
2023-03-11T13:46:34.138Z,71.17
2023-03-11T13:47:34.084Z,72.11
2023-03-11T13:48:36.141Z,71.28
2023-03-11T13:49:34.081Z,70.06
2023-03-11T13:50:34.060Z,70.17
2023-03-11T13:51:34.030Z,70.17
2023-03-11T13:52:34.031Z,70.17
2023-03-11T13:53:34.002Z,69.12
2023-03-11T13:54:33.983Z,69.20
2023-03-11T13:55:33.994Z,68.16
2023-03-11T13:56:33.951Z,68.78
2023-03-11T13:57:33.946Z,66.39
2023-03-11T13:58:33.954Z,67.95
2023-03-11T13:59:33.933Z,66.54
2023-03-11T14:00:33.941Z,65.50
2023-03-11T14:01:33.899Z,65.42
2023-03-11T14:02:33.895Z,66.47
2023-03-11T14:03:33.884Z,65.35
2023-03-11T14:04:33.947Z,66.50
2023-03-11T14:05:33.994Z,66.57
2023-03-11T14:06:33.934Z,65.19
2023-03-11T14:07:33.938Z,63.23
2023-03-11T14:08:33.850Z,62.19
2023-03-11T14:09:33.840Z,61.02
2023-03-11T14:10:33.913Z,58.20
2023-03-11T14:11:33.831Z,55.72
2023-03-11T14:12:33.784Z,55.33
2023-03-11T14:13:33.814Z,56.57
2023-03-11T14:14:33.764Z,55.69
2023-03-11T14:15:33.775Z,57.34
2023-03-11T14:16:33.900Z,57.99
2023-03-11T14:17:33.764Z,59.47
2023-03-11T14:18:33.722Z,61.83
2023-03-11T14:19:33.734Z,62.87
2023-03-11T14:20:33.733Z,61.57
2023-03-11T14:21:33.689Z,62.14
2023-03-11T14:22:33.676Z,61.46
2023-03-11T14:23:33.672Z,62.68
2023-03-11T14:24:33.661Z,60.24
2023-03-11T14:25:33.644Z,59.47
2023-03-11T14:26:33.642Z,63.28
2023-03-11T14:27:33.694Z,64.92
2023-03-11T14:28:33.628Z,65.83
2023-03-11T14:29:33.602Z,63.74
2023-03-11T14:30:33.605Z,61.17
2023-03-11T14:31:33.661Z,60.60
2023-03-11T14:32:33.577Z,63.25
2023-03-11T14:33:33.608Z,62.42
2023-03-11T14:34:33.550Z,63.90
2023-03-11T14:35:33.678Z,64.58
2023-03-11T14:36:33.518Z,65.89
2023-03-11T14:37:33.535Z,65.00
2023-03-11T14:38:33.529Z,66.22
2023-03-11T14:39:33.487Z,67.92
2023-03-11T14:40:33.488Z,68.65
2023-03-11T14:41:33.484Z,67.68
2023-03-11T14:42:33.458Z,67.58
2023-03-11T14:43:33.439Z,66.51
2023-03-11T14:44:33.437Z,66.22
2023-03-11T14:45:33.460Z,66.96
2023-03-11T14:46:33.413Z,66.88
2023-03-11T14:47:33.414Z,68.47
2023-03-11T14:48:33.397Z,67.85
2023-03-11T14:49:33.430Z,66.54
2023-03-11T14:50:33.399Z,65.87
2023-03-11T14:51:33.401Z,66.22
2023-03-11T14:52:33.395Z,65.96
2023-03-11T14:53:33.409Z,63.62
2023-03-11T14:54:33.334Z,64.51
2023-03-11T14:55:33.310Z,65.99
2023-03-11T14:56:33.313Z,66.27
2023-03-11T14:57:33.348Z,66.47
2023-03-11T14:58:33.288Z,65.19
2023-03-11T14:59:33.303Z,64.27
2023-03-11T15:00:33.266Z,62.43
2023-03-11T15:01:33.263Z,64.04
2023-03-11T15:02:33.286Z,65.32
2023-03-11T15:03:33.290Z,65.97
2023-03-11T15:04:33.254Z,65.58
2023-03-11T15:05:33.204Z,61.83
2023-03-11T15:06:33.193Z,59.91
2023-03-11T15:07:34.608Z,59.05
2023-03-11T15:08:33.184Z,58.25
2023-03-11T15:09:33.181Z,58.80
2023-03-11T15:10:33.165Z,60.10
2023-03-11T15:11:33.148Z,61.00
2023-03-11T15:12:33.184Z,59.58
2023-03-11T15:13:33.143Z,61.74
2023-03-11T15:14:33.134Z,61.88
2023-03-11T15:15:33.235Z,61.03
2023-03-11T15:16:33.158Z,61.19
2023-03-11T15:17:39.822Z,62.93
2023-03-11T15:18:33.065Z,63.93
2023-03-11T15:19:33.113Z,64.62
2023-03-11T15:20:33.038Z,63.11
2023-03-11T15:21:33.074Z,64.70
2023-03-11T15:22:33.032Z,64.80
2023-03-11T15:23:33.065Z,65.56
2023-03-11T15:24:33.014Z,66.28
2023-03-11T15:25:33.058Z,65.14
2023-03-11T15:26:33.002Z,64.28
2023-03-11T15:27:32.982Z,64.07
2023-03-11T15:28:33.000Z,63.87
2023-03-11T15:29:33.008Z,63.56
2023-03-11T15:30:33.243Z,63.63
2023-03-11T15:31:32.982Z,62.80
2023-03-11T15:32:33.052Z,62.59
2023-03-11T15:33:32.995Z,62.18
2023-03-11T15:34:32.914Z,62.80
2023-03-11T15:35:33.024Z,62.38
2023-03-11T15:36:33.004Z,62.38
2023-03-11T15:37:32.949Z,62.18
2023-03-11T15:38:32.968Z,62.49
2023-03-11T15:39:32.846Z,62.80
2023-03-11T15:40:44.989Z,63.01
2023-03-11T15:41:32.861Z,62.93
2023-03-11T15:42:32.900Z,64.18
2023-03-11T15:43:32.873Z,64.18
2023-03-11T15:44:32.873Z,64.49
2023-03-11T15:45:32.851Z,64.18
2023-03-11T15:46:32.937Z,64.04
2023-03-11T15:47:32.772Z,64.28
2023-03-11T15:48:32.760Z,64.04
2023-03-11T15:49:32.796Z,64.70
2023-03-11T15:50:43.281Z,64.67
2023-03-11T15:51:32.758Z,64.98
2023-03-11T15:52:32.706Z,65.60
2023-03-11T15:53:32.737Z,64.56
2023-03-11T15:54:32.726Z,65.19
2023-03-11T15:55:32.701Z,64.36
2023-03-11T15:56:32.656Z,63.94
2023-03-11T15:57:32.676Z,64.28
2023-03-11T15:58:32.674Z,64.59
2023-03-11T15:59:32.640Z,64.73
2023-03-11T16:00:32.610Z,64.52
2023-03-11T16:01:32.628Z,64.62
2023-03-11T16:02:32.602Z,65.04
2023-03-11T16:03:32.645Z,65.28
2023-03-11T16:04:32.660Z,64.86
2023-03-11T16:05:32.616Z,64.34
2023-03-11T16:06:32.626Z,64.65
2023-03-11T16:07:39.541Z,65.17
2023-03-11T16:08:32.628Z,65.07
2023-03-11T16:09:32.625Z,63.64
2023-03-11T16:10:32.794Z,63.85
2023-03-11T16:11:32.547Z,63.54
2023-03-11T16:12:32.533Z,63.43
2023-03-11T16:13:32.558Z,63.43
2023-03-11T16:14:32.574Z,63.85
2023-03-11T16:15:32.603Z,63.96
2023-03-11T16:16:32.481Z,63.54
2023-03-11T16:17:48.548Z,64.06
2023-03-11T16:18:32.491Z,63.20
2023-03-11T16:19:32.439Z,63.20
2023-03-11T16:20:32.557Z,63.54
2023-03-11T16:21:32.394Z,62.68
2023-03-11T16:22:32.394Z,62.88
2023-03-11T16:23:48.629Z,62.37
2023-03-11T16:24:32.374Z,62.88
2023-03-11T16:25:33.361Z,62.26
2023-03-11T16:26:32.383Z,62.88
2023-03-11T16:27:32.349Z,64.17
2023-03-11T16:28:32.391Z,64.48
2023-03-11T16:29:32.300Z,64.92
2023-03-11T16:30:32.413Z,65.23
2023-03-11T16:31:32.314Z,65.55
2023-03-11T16:32:32.292Z,66.06
2023-03-11T16:33:32.323Z,66.27
2023-03-11T16:34:32.252Z,66.17
2023-03-11T16:35:32.352Z,66.69
2023-03-11T16:36:32.287Z,66.80
2023-03-11T16:37:32.239Z,66.80
2023-03-11T16:38:32.275Z,66.17
2023-03-11T16:39:32.292Z,66.69
2023-03-11T16:40:32.225Z,66.80
2023-03-11T16:41:32.217Z,66.93
2023-03-11T16:42:32.230Z,67.14
2023-03-11T16:43:32.219Z,67.76
2023-03-11T16:44:32.236Z,67.45
2023-03-11T16:45:32.192Z,67.66
2023-03-11T16:46:32.215Z,68.07
2023-03-11T16:47:32.187Z,68.60
2023-03-11T16:48:32.126Z,68.18
2023-03-11T16:49:32.154Z,68.07
2023-03-11T16:50:32.120Z,68.60
2023-03-11T16:51:32.265Z,68.60
2023-03-11T16:52:32.078Z,68.80
2023-03-11T16:53:32.096Z,69.01
2023-03-11T16:54:32.066Z,69.01
2023-03-11T16:55:32.041Z,69.32
2023-03-11T16:56:32.011Z,69.35
2023-03-11T16:57:32.011Z,69.77
2023-03-11T16:58:32.015Z,69.77
2023-03-11T16:59:32.183Z,70.09
2023-03-11T17:00:31.979Z,70.50
2023-03-11T17:01:32.057Z,70.40
2023-03-11T17:02:32.118Z,70.61
2023-03-11T17:03:41.904Z,70.92
2023-03-11T17:04:32.108Z,70.81
2023-03-11T17:05:31.962Z,71.02
2023-03-11T17:06:31.918Z,71.02
2023-03-11T17:07:31.920Z,71.33
2023-03-11T17:08:31.902Z,71.37
2023-03-11T17:09:31.967Z,71.68
2023-03-11T17:10:31.876Z,71.78
2023-03-11T17:11:31.884Z,72.09
2023-03-11T17:12:31.984Z,72.30
2023-03-11T17:13:31.858Z,72.30
2023-03-11T17:14:31.857Z,72.09
2023-03-11T17:15:31.876Z,72.30
2023-03-11T17:16:31.886Z,72.51
2023-03-11T17:17:31.858Z,72.72
2023-03-11T17:18:31.806Z,72.72
2023-03-11T17:19:31.864Z,73.03
2023-03-11T17:20:31.872Z,73.17
2023-03-11T17:21:31.770Z,73.24
2023-03-11T17:22:31.767Z,73.24
2023-03-11T17:23:31.779Z,73.38
2023-03-11T17:24:31.735Z,73.45
2023-03-11T17:25:31.751Z,74.01
2023-03-11T17:26:31.773Z,74.11
2023-03-11T17:27:31.716Z,74.32
2023-03-11T17:28:31.709Z,74.42
2023-03-11T17:29:31.692Z,74.63
2023-03-11T17:30:37.166Z,75.05
2023-03-11T17:31:31.746Z,75.05
2023-03-11T17:32:31.709Z,75.15
2023-03-11T17:33:31.666Z,75.15
2023-03-11T17:34:31.667Z,75.36
2023-03-11T17:35:31.695Z,75.67
2023-03-11T17:36:31.654Z,75.46
2023-03-11T17:37:31.626Z,75.57
2023-03-11T17:38:31.658Z,75.67
2023-03-11T17:39:31.638Z,75.88
2023-03-11T17:40:31.728Z,76.20
2023-03-11T17:41:31.677Z,76.02
2023-03-11T17:42:31.573Z,76.30
2023-03-11T17:43:31.619Z,76.20
2023-03-11T17:44:48.513Z,76.51
2023-03-11T17:45:31.634Z,76.54
2023-03-11T17:46:31.699Z,76.65
2023-03-11T17:47:31.571Z,76.65
2023-03-11T17:48:31.603Z,76.96
2023-03-11T17:49:31.587Z,76.75
2023-03-11T17:50:31.594Z,77.17
2023-03-11T17:51:31.567Z,77.37
2023-03-11T17:52:31.573Z,76.96